Time;durP1;ratioP1;P1;durP2;ratioP2;P2;SDS_P1;SDS_P2;PMS_P1;PMS_P2;Temp;Humidity;BMP_temperature;BMP_pressure;BME280_temperature;BME280_humidity;BME280_pressure;Samples;Min_cycle;Max_cycle;Signal;HPM_P1;HPM_P2
2022/09/10 00:02:15;;;;;;;13.45;5.32;;;;;;;18.27;96.79;100881.56;4969041;28;20031;-63
2022/09/10 00:04:41;;;;;;;12.13;5.32;;;;;;;18.29;96.64;100885.81;4969609;28;20035;-72
2022/09/10 00:07:06;;;;;;;9.82;4.85;;;;;;;18.28;96.98;100893.94;4970296;28;20031;-73
2022/09/10 00:09:31;;;;;;;10.98;5.28;;;;;;;18.08;97.50;100889.84;4969471;28;20031;-71
2022/09/10 00:11:57;;;;;;;11.60;4.97;;;;;;;18.10;96.97;100891.53;4969640;28;20069;-72
2022/09/10 00:14:22;;;;;;;8.77;4.70;;;;;;;18.16;96.64;100880.47;4936476;28;20029;-71
2022/09/10 00:16:48;;;;;;;6.13;4.28;;;;;;;18.24;96.14;100881.75;4968954;28;20085;-69
2022/09/10 00:19:14;;;;;;;10.57;4.20;;;;;;;18.18;96.75;100883.84;4969694;28;20162;-73
2022/09/10 00:21:40;;;;;;;9.32;4.30;;;;;;;18.18;96.32;100883.00;4969692;28;20082;-73
2022/09/10 00:24:05;;;;;;;11.68;4.38;;;;;;;18.10;96.45;100883.53;4969543;28;20373;-72
2022/09/10 00:26:36;;;;;;;9.55;4.05;;;;;;;18.08;96.58;100884.53;4969570;28;20061;-72
2022/09/10 00:29:03;;;;;;;7.63;3.83;;;;;;;18.18;96.36;100873.19;4969479;28;20054;-75
2022/09/10 00:31:30;;;;;;;8.73;3.67;;;;;;;18.16;96.22;100879.59;4951428;28;20066;-73
2022/09/10 00:33:57;;;;;;;7.45;3.63;;;;;;;18.11;96.78;100876.34;4969909;28;20366;-74
2022/09/10 00:36:26;;;;;;;10.77;3.58;;;;;;;18.10;96.39;100879.94;4972142;28;20031;-75
2022/09/10 00:38:53;;;;;;;7.57;3.63;;;;;;;18.16;95.90;100877.78;4973514;28;20035;-69
2022/09/10 00:41:21;;;;;;;10.48;3.15;;;;;;;18.17;96.34;100874.16;4973914;28;20062;-71
2022/09/10 00:44:01;;;;;;;4.15;2.90;;;;;;;18.21;95.95;100877.47;4973376;28;20077;-70
2022/09/10 00:46:32;;;;;;;8.02;3.53;;;;;;;18.13;96.01;100875.31;4954880;28;20054;-72
2022/09/10 00:49:01;;;;;;;7.25;3.10;;;;;;;18.07;96.69;100883.69;4973317;28;20102;-69
2022/09/10 00:51:29;;;;;;;3.40;2.40;;;;;;;18.06;96.25;100876.63;4955935;28;20038;-71
2022/09/10 00:53:55;;;;;;;4.55;2.72;;;;;;;18.02;96.55;100878.66;4956147;28;20421;-69
2022/09/10 00:56:21;;;;;;;4.80;2.65;;;;;;;18.10;96.01;100878.19;4939903;28;20154;-72
2022/09/10 00:58:47;;;;;;;3.80;2.28;;;;;;;18.14;95.90;100874.34;4971674;28;20039;-72
2022/09/10 01:01:12;;;;;;;3.60;2.42;;;;;;;18.08;95.38;100879.19;4972626;28;20030;-60
2022/09/10 01:03:39;;;;;;;3.13;1.90;;;;;;;18.08;95.90;100882.72;4955565;28;20109;-71
2022/09/10 01:06:04;;;;;;;4.93;2.10;;;;;;;18.07;95.62;100870.34;4955915;28;20077;-71
2022/09/10 01:08:30;;;;;;;3.50;1.90;;;;;;;18.02;95.35;100869.78;4955449;28;20541;-72
2022/09/10 01:11:05;;;;;;;3.25;2.20;;;;;;;18.03;95.27;100868.84;4972971;28;20023;-61
2022/09/10 01:13:55;;;;;;;3.83;2.22;;;;;;;18.07;95.20;100854.34;4972673;28;20093;-72
2022/09/10 01:16:27;;;;;;;4.80;2.70;;;;;;;17.91;95.71;100866.00;4972362;28;20039;-72
2022/09/10 01:18:58;;;;;;;5.13;3.03;;;;;;;17.84;96.27;100859.38;4972889;28;20477;-65
2022/09/10 01:21:43;;;;;;;5.97;4.05;;;;;;;17.72;96.74;100862.81;4972942;28;20027;-72
2022/09/10 01:24:18;;;;;;;7.35;3.50;;;;;;;17.72;97.18;100865.47;4955559;28;20034;-74
2022/09/10 01:26:50;;;;;;;6.00;3.78;;;;;;;17.78;96.44;100873.06;4972391;28;20071;-61
2022/09/10 01:29:19;;;;;;;10.18;4.25;;;;;;;17.83;96.40;100868.31;4972755;28;20113;-73
2022/09/10 01:31:53;;;;;;;5.85;4.43;;;;;;;17.80;96.43;100864.06;4971662;28;20039;-67
2022/09/10 01:34:35;;;;;;;7.53;5.15;;;;;;;17.78;97.20;100871.28;4972562;28;20042;-67
2022/09/10 01:37:07;;;;;;;9.38;4.65;;;;;;;17.81;97.40;100870.22;4954767;28;20027;-76
2022/09/10 01:39:33;;;;;;;12.60;5.03;;;;;;;17.82;97.31;100863.94;4955014;28;20480;-70
2022/09/10 01:41:59;;;;;;;12.23;5.30;;;;;;;17.77;97.38;100868.72;4972418;28;20030;-74
2022/09/10 01:44:44;;;;;;;9.55;4.72;;;;;;;17.74;97.65;100859.13;4972454;28;20030;-72
2022/09/10 01:47:16;;;;;;;8.40;4.65;;;;;;;17.76;97.91;100862.50;4970188;28;20046;-75
2022/09/10 01:49:55;;;;;;;11.40;5.82;;;;;;;17.80;97.66;100869.38;4972556;28;20030;-72
2022/09/10 01:52:32;;;;;;;8.07;4.32;;;;;;;17.88;97.53;100862.69;4972205;28;20481;-72
2022/09/10 01:55:09;;;;;;;7.45;4.63;;;;;;;17.92;97.19;100862.41;4954908;28;20470;-75
2022/09/10 01:57:58;;;;;;;11.45;5.03;;;;;;;17.95;97.42;100869.34;4954689;28;20417;-72
2022/09/10 02:00:23;;;;;;;10.15;5.03;;;;;;;18.00;97.70;100869.03;4970939;28;20510;-60
2022/09/10 02:03:10;;;;;;;8.32;4.43;;;;;;;17.99;97.40;100864.66;4972044;28;20106;-61
2022/09/10 02:05:36;;;;;;;11.48;4.75;;;;;;;17.99;97.68;100856.66;4969491;28;20033;-64
2022/09/10 02:08:06;;;;;;;8.93;4.43;;;;;;;17.94;97.64;100862.28;4972048;28;20031;-73
2022/09/10 02:10:31;;;;;;;8.88;3.85;;;;;;;17.91;98.42;100866.00;4954464;28;20381;-73
2022/09/10 02:12:57;;;;;;;10.30;4.20;;;;;;;18.00;98.09;100869.88;4972008;28;20034;-73
2022/09/10 02:15:23;;;;;;;7.78;3.15;;;;;;;18.01;98.12;100865.41;4971458;28;20437;-69
2022/09/10 02:17:48;;;;;;;7.18;3.42;;;;;;;18.08;98.20;100863.19;4971534;28;20030;-73
2022/09/10 02:20:14;;;;;;;8.68;3.47;;;;;;;18.08;98.72;100861.38;4971048;28;20025;-75
2022/09/10 02:22:46;;;;;;;6.38;3.47;;;;;;;18.12;98.69;100856.75;4954430;28;20022;-74
2022/09/10 02:25:12;;;;;;;8.50;3.67;;;;;;;18.16;98.77;100852.94;4972396;28;20146;-75
2022/09/10 02:27:37;;;;;;;6.63;4.13;;;;;;;18.23;98.47;100846.22;4971772;28;20530;-70
2022/09/10 02:30:05;;;;;;;7.95;4.00;;;;;;;18.24;98.39;100849.75;4954369;28;20023;-74
2022/09/10 02:32:31;;;;;;;9.90;4.95;;;;;;;18.23;98.34;100843.56;4969639;28;20101;-73
2022/09/10 02:34:56;;;;;;;10.45;4.35;;;;;;;18.23;98.18;100843.56;4971665;28;20034;-72
2022/09/10 02:37:23;;;;;;;11.43;4.22;;;;;;;18.25;98.11;100832.78;4971538;28;20077;-60
2022/09/10 02:39:48;;;;;;;9.43;4.53;;;;;;;18.10;98.86;100838.19;4971721;28;20023;-72
2022/09/10 02:42:15;;;;;;;15.32;5.28;;;;;;;18.07;98.50;100825.03;4972381;28;20033;-59
2022/09/10 02:44:41;;;;;;;5.80;4.22;;;;;;;18.08;98.37;100824.06;4942034;29;20035;-72
2022/09/10 02:47:06;;;;;;;11.30;4.97;;;;;;;18.07;98.57;100827.69;4961781;28;20046;-63
2022/09/10 02:49:33;;;;;;;11.02;5.25;;;;;;;18.07;98.38;100833.03;4971223;28;20034;-73
2022/09/10 02:51:58;;;;;;;14.60;5.63;;;;;;;18.03;98.88;100843.03;4980219;28;20477;-68
2022/09/10 02:54:25;;;;;;;11.13;5.63;;;;;;;18.03;98.81;100837.69;4970665;28;20043;-73
2022/09/10 02:56:50;;;;;;;12.13;6.00;;;;;;;17.94;98.85;100843.63;4971283;28;20018;-71
2022/09/10 02:59:16;;;;;;;11.20;5.95;;;;;;;17.97;98.83;100843.41;4970733;28;20027;-65
2022/09/10 03:01:42;;;;;;;11.25;5.68;;;;;;;18.01;98.71;100839.63;4970293;28;20026;-73
2022/09/10 03:04:08;;;;;;;10.63;6.13;;;;;;;17.96;98.63;100841.72;4971549;28;20206;-63
2022/09/10 03:06:33;;;;;;;10.57;6.57;;;;;;;17.93;98.89;100841.91;4971056;28;20035;-73
2022/09/10 03:08:58;;;;;;;15.00;6.93;;;;;;;17.92;99.26;100843.75;4971107;28;20486;-76
2022/09/10 03:11:26;;;;;;;11.50;6.75;;;;;;;17.87;99.66;100843.19;4971377;28;20031;-72
2022/09/10 03:13:51;;;;;;;11.55;7.38;;;;;;;17.83;100.00;100841.66;4971173;28;20064;-77
2022/09/10 03:16:17;;;;;;;15.65;7.78;;;;;;;17.89;100.00;100841.28;4953251;28;20065;-70
2022/09/10 03:18:43;;;;;;;13.30;6.97;;;;;;;17.92;100.00;100835.75;4970702;28;20035;-73
2022/09/10 03:21:17;;;;;;;17.40;9.05;;;;;;;17.88;99.96;100838.72;4953510;28;20035;-74
2022/09/10 03:23:43;;;;;;;13.60;8.40;;;;;;;17.92;100.00;100843.75;4970727;28;20023;-59
2022/09/10 03:26:09;;;;;;;16.85;8.50;;;;;;;17.90;99.83;100832.31;4970718;28;20562;-72
2022/09/10 03:28:36;;;;;;;15.75;9.07;;;;;;;17.93;99.28;100832.13;4970593;28;20066;-65
2022/09/10 03:31:02;;;;;;;14.38;8.73;;;;;;;17.96;99.83;100835.53;4970023;28;20034;-73
2022/09/10 03:33:28;;;;;;;15.23;9.85;;;;;;;17.86;99.95;100841.47;4970540;28;20027;-73
2022/09/10 03:35:54;;;;;;;20.02;8.77;;;;;;;17.87;100.00;100842.31;4970375;28;20033;-72
2022/09/10 03:38:19;;;;;;;12.02;8.32;;;;;;;17.91;99.84;100850.00;4970688;28;20105;-70
2022/09/10 03:40:45;;;;;;;14.90;9.30;;;;;;;17.87;99.97;100836.97;4970459;28;20019;-72
2022/09/10 03:43:11;;;;;;;18.70;9.13;;;;;;;17.80;99.62;100834.75;4970500;28;20062;-75
2022/09/10 03:45:37;;;;;;;15.43;8.38;;;;;;;17.78;99.87;100835.78;4969466;28;20074;-72
2022/09/10 03:48:02;;;;;;;15.55;6.95;;;;;;;17.77;99.46;100847.41;4970230;28;20050;-72
2022/09/10 03:50:28;;;;;;;17.20;8.38;;;;;;;17.76;99.77;100845.69;4970076;28;20057;-60
2022/09/10 03:52:55;;;;;;;17.75;8.02;;;;;;;17.74;100.00;100840.47;4970389;28;20105;-72
2022/09/10 03:55:21;;;;;;;12.30;7.97;;;;;;;17.79;100.00;100840.16;4970597;28;20037;-62
2022/09/10 03:57:46;;;;;;;16.08;7.38;;;;;;;17.84;100.00;100843.38;4970050;28;20031;-68
2022/09/10 04:00:12;;;;;;;16.27;7.80;;;;;;;17.81;100.00;100843.56;4969495;28;20037;-73
2022/09/10 04:02:37;;;;;;;12.73;7.22;;;;;;;17.85;100.00;100849.56;4969790;28;20023;-70
2022/09/10 04:05:03;;;;;;;11.98;6.57;;;;;;;17.86;100.00;100838.81;4970114;28;20058;-71
2022/09/10 04:07:29;;;;;;;19.45;6.68;;;;;;;17.87;100.00;100845.84;4970208;28;20048;-73
2022/09/10 04:09:54;;;;;;;13.73;6.30;;;;;;;17.93;100.00;100840.13;4969820;28;20038;-72
2022/09/10 04:12:20;;;;;;;10.88;6.18;;;;;;;17.93;100.00;100842.78;4970047;28;20483;-73
2022/09/10 04:14:45;;;;;;;11.98;5.85;;;;;;;17.98;100.00;100838.94;4969996;28;20035;-72
2022/09/10 04:17:11;;;;;;;12.07;5.93;;;;;;;18.02;100.00;100836.00;4969168;28;20050;-61
2022/09/10 04:19:39;;;;;;;18.08;5.22;;;;;;;18.07;100.00;100838.34;4969761;28;20026;-71
2022/09/10 04:22:04;;;;;;;14.18;5.18;;;;;;;18.07;100.00;100838.34;4969980;28;20031;-73
2022/09/10 04:24:29;;;;;;;13.25;6.05;;;;;;;18.06;100.00;100841.97;4969581;28;20034;-71
2022/09/10 04:26:56;;;;;;;9.77;4.10;;;;;;;18.15;100.00;100845.88;4970286;28;20110;-62
2022/09/10 04:29:22;;;;;;;13.80;4.70;;;;;;;18.13;100.00;100845.13;4970275;28;20145;-72
2022/09/10 04:31:47;;;;;;;7.60;4.00;;;;;;;18.07;100.00;100849.03;4968953;28;20118;-58
2022/09/10 04:34:12;;;;;;;16.35;4.47;;;;;;;18.04;100.00;100849.22;4969832;28;20031;-70
2022/09/10 04:36:38;;;;;;;15.90;4.72;;;;;;;18.13;100.00;100851.31;4969924;28;20033;-71
2022/09/10 04:39:03;;;;;;;14.57;4.10;;;;;;;18.13;100.00;100856.66;4969777;28;20577;-71
2022/09/10 04:41:28;;;;;;;7.95;3.42;;;;;;;18.15;100.00;100860.06;4969155;28;20034;-70
2022/09/10 04:43:54;;;;;;;9.65;3.83;;;;;;;18.17;100.00;100855.50;4969698;28;20113;-69
2022/09/10 04:46:19;;;;;;;13.63;3.72;;;;;;;18.16;100.00;100859.13;4986184;28;20038;-68
2022/09/10 04:48:44;;;;;;;21.02;3.72;;;;;;;18.19;100.00;100858.88;4977817;28;20019;-70
2022/09/10 04:51:12;;;;;;;10.73;3.58;;;;;;;18.17;100.00;100867.97;4978013;28;20018;-71
2022/09/10 04:53:39;;;;;;;11.73;3.97;;;;;;;18.16;100.00;100863.59;4977118;28;20030;-71
2022/09/10 04:56:05;;;;;;;11.80;3.83;;;;;;;18.11;99.90;100865.69;4972444;28;20489;-71
2022/09/10 04:58:31;;;;;;;13.35;4.53;;;;;;;18.06;100.00;100863.28;4951980;28;20393;-72
2022/09/10 05:00:57;;;;;;;11.57;5.15;;;;;;;18.03;99.85;100869.69;4968547;28;20033;-67
2022/09/10 05:03:22;;;;;;;12.27;4.53;;;;;;;17.97;100.00;100867.41;4974338;28;20493;-71
2022/09/10 05:05:48;;;;;;;13.38;3.78;;;;;;;17.91;100.00;100871.34;4976372;28;20030;-71
2022/09/10 05:08:13;;;;;;;12.55;4.53;;;;;;;17.89;100.00;100865.28;4967003;28;20026;-71
2022/09/10 05:10:42;;;;;;;8.07;3.97;;;;;;;17.94;100.00;100875.59;4968705;28;20029;-62
2022/09/10 05:13:07;;;;;;;10.43;4.07;;;;;;;17.90;100.00;100871.44;4970948;28;20023;-70
2022/09/10 05:15:34;;;;;;;10.90;4.15;;;;;;;17.84;100.00;100872.69;4968972;28;20362;-69
2022/09/10 05:18:00;;;;;;;14.98;4.05;;;;;;;17.86;100.00;100878.78;4968949;28;20093;-68
2022/09/10 05:20:26;;;;;;;10.80;3.60;;;;;;;17.94;100.00;100876.47;4969779;28;20197;-70
2022/09/10 05:22:53;;;;;;;15.38;3.97;;;;;;;17.98;100.00;100878.94;4972131;28;20441;-72
2022/09/10 05:25:19;;;;;;;15.43;4.53;;;;;;;18.06;100.00;100868.63;4973797;28;20045;-71
2022/09/10 05:27:44;;;;;;;11.57;4.60;;;;;;;18.03;100.00;100876.84;4972773;28;20038;-72
2022/09/10 05:30:10;;;;;;;13.02;4.47;;;;;;;18.00;100.00;100883.22;4972709;28;20031;-67
2022/09/10 05:32:35;;;;;;;13.88;4.35;;;;;;;18.08;100.00;100890.72;4972457;28;20039;-71
2022/09/10 05:35:01;;;;;;;15.20;4.88;;;;;;;18.09;100.00;100881.75;4976776;28;20026;-71
2022/09/10 05:37:26;;;;;;;9.77;4.18;;;;;;;18.08;100.00;100889.84;4980935;28;20545;-66
2022/09/10 05:39:52;;;;;;;14.13;4.00;;;;;;;18.04;100.00;100887.41;4973817;28;20031;-69
2022/09/10 05:42:17;;;;;;;19.92;4.18;;;;;;;18.06;100.00;100889.94;4972773;28;20081;-71
2022/09/10 05:44:43;;;;;;;15.57;4.47;;;;;;;18.08;100.00;100888.06;4954702;28;20184;-73
2022/09/10 05:47:08;;;;;;;12.82;4.57;;;;;;;18.12;100.00;100892.25;4972951;28;20046;-61
2022/09/10 05:49:33;;;;;;;14.95;4.38;;;;;;;18.10;100.00;100894.19;4973075;28;20079;-69
2022/09/10 05:51:59;;;;;;;16.90;5.47;;;;;;;18.12;100.00;100889.59;4970334;28;20034;-70
2022/09/10 05:54:24;;;;;;;18.52;4.93;;;;;;;18.23;100.00;100891.56;4972694;28;20033;-68
2022/09/10 05:59:30;;;;;;;11.68;4.40;;;;;;;18.43;100.00;100895.56;3628981;23;20066;-62
2022/09/10 06:01:56;;;;;;;14.90;4.50;;;;;;;18.49;100.00;100897.00;5024544;28;20029;-69
2022/09/10 06:04:23;;;;;;;12.45;4.53;;;;;;;18.55;100.00;100898.38;5030341;28;20529;-69
2022/09/10 06:06:48;;;;;;;14.77;4.65;;;;;;;18.62;100.00;100901.47;5027175;28;20068;-67
2022/09/10 06:09:13;;;;;;;12.15;4.93;;;;;;;18.61;100.00;100903.31;5030713;28;20033;-70
2022/09/10 06:11:39;;;;;;;18.92;5.95;;;;;;;18.63;100.00;100900.53;5029597;28;20026;-68
2022/09/10 06:14:05;;;;;;;13.88;5.03;;;;;;;18.68;100.00;100903.75;5030010;28;20501;-71
2022/09/10 06:16:32;;;;;;;16.70;5.25;;;;;;;18.86;100.00;100904.31;5012723;28;20044;-67
2022/09/10 06:18:58;;;;;;;17.42;5.20;;;;;;;18.91;100.00;100907.50;5026982;28;20025;-72
2022/09/10 06:21:23;;;;;;;16.60;5.10;;;;;;;18.98;99.83;100896.41;5009592;28;20034;-71
2022/09/10 06:23:52;;;;;;;12.48;5.38;;;;;;;18.99;99.89;100903.47;5010956;28;20022;-73
2022/09/10 06:26:18;;;;;;;12.35;5.40;;;;;;;19.06;99.48;100912.78;5009801;28;20044;-69
2022/09/10 06:28:44;;;;;;;10.38;4.65;;;;;;;19.15;99.32;100904.13;5009476;28;20028;-69
2022/09/10 06:31:15;;;;;;;10.50;4.22;;;;;;;19.15;98.99;100913.97;5015231;28;20033;-68
2022/09/10 06:33:41;;;;;;;14.05;5.00;;;;;;;19.25;98.71;100914.19;5022688;28;20033;-68
2022/09/10 06:36:08;;;;;;;10.93;4.93;;;;;;;19.25;98.49;100920.41;5029416;28;20075;-65
2022/09/10 06:38:33;;;;;;;14.23;5.45;;;;;;;19.37;98.83;100923.16;5027842;28;20032;-68
2022/09/10 06:41:03;;;;;;;13.88;5.47;;;;;;;19.48;99.26;100925.94;5030061;28;20025;-67
2022/09/10 06:43:31;;;;;;;11.80;4.90;;;;;;;19.69;98.31;100933.41;5029085;28;20022;-61
2022/09/10 06:45:57;;;;;;;15.68;4.85;;;;;;;19.84;98.53;100944.81;5018519;28;20052;-69
2022/09/10 06:48:27;;;;;;;15.63;5.05;;;;;;;20.10;97.45;100936.75;5028868;28;20057;-71
2022/09/10 06:50:56;;;;;;;10.60;4.45;;;;;;;20.28;96.46;100939.03;5014719;28;20141;-68
2022/09/10 06:53:23;;;;;;;12.80;3.95;;;;;;;20.31;95.36;100946.81;5007689;28;20487;-66
2022/09/10 06:55:50;;;;;;;6.70;3.72;;;;;;;20.38;94.27;100944.56;5009801;28;20057;-67
2022/09/10 06:58:19;;;;;;;9.73;3.80;;;;;;;20.45;93.83;100951.16;5008731;28;20018;-68
2022/09/10 07:00:46;;;;;;;11.20;3.80;;;;;;;20.51;92.79;100955.19;5009815;28;20100;-68
2022/09/10 07:03:16;;;;;;;12.70;3.72;;;;;;;20.40;93.02;100956.00;5010213;28;20034;-66
2022/09/10 07:05:43;;;;;;;9.95;3.15;;;;;;;20.40;92.62;100956.84;5008232;28;20080;-62
2022/09/10 07:08:13;;;;;;;8.02;2.90;;;;;;;20.34;92.67;100959.97;5009473;28;20672;-65
2022/09/10 07:10:39;;;;;;;7.60;2.17;;;;;;;20.41;91.57;100961.22;5007955;28;20061;-70
2022/09/10 07:13:05;;;;;;;4.07;2.20;;;;;;;20.36;91.50;100963.41;5009025;28;20072;-68
2022/09/10 07:15:31;;;;;;;4.63;2.30;;;;;;;20.35;91.78;100956.34;5009243;28;20042;-68
2022/09/10 07:17:57;;;;;;;5.15;2.13;;;;;;;20.32;91.53;100964.59;5010217;28;20382;-69
2022/09/10 07:20:23;;;;;;;7.43;1.67;;;;;;;20.40;91.39;100975.59;5018294;28;20044;-67
2022/09/10 07:22:54;;;;;;;7.95;1.50;;;;;;;20.40;90.66;100980.06;5028668;28;20025;-66
2022/09/10 07:25:20;;;;;;;3.05;1.23;;;;;;;20.27;90.93;100980.13;5024715;28;20053;-66
2022/09/10 07:27:45;;;;;;;4.95;1.08;;;;;;;20.35;90.82;100982.25;5027494;28;20025;-66
2022/09/10 07:30:11;;;;;;;2.67;1.10;;;;;;;20.38;90.77;100982.03;5023217;28;20037;-69
2022/09/10 07:32:39;;;;;;;2.60;0.75;;;;;;;20.39;90.36;100989.94;5003553;28;20030;-67
2022/09/10 07:35:06;;;;;;;3.10;0.82;;;;;;;20.50;89.54;100993.66;5021961;28;20040;-65
2022/09/10 07:37:31;;;;;;;5.18;1.20;;;;;;;20.52;89.67;100994.38;5009170;28;20022;-67
2022/09/10 07:39:57;;;;;;;3.55;1.08;;;;;;;20.53;89.54;100990.75;5011999;28;20022;-68
2022/09/10 07:42:24;;;;;;;3.75;1.05;;;;;;;20.61;89.13;100993.69;5004408;28;20037;-67
2022/09/10 07:44:49;;;;;;;5.45;0.90;;;;;;;20.74;89.25;100990.94;5006749;28;20515;-67
2022/09/10 07:47:15;;;;;;;6.63;1.30;;;;;;;20.89;88.96;101002.31;5006812;28;20122;-67
2022/09/10 07:49:42;;;;;;;5.57;1.35;;;;;;;20.88;89.62;101002.44;5007519;28;20026;-66
2022/09/10 07:52:07;;;;;;;2.92;1.45;;;;;;;21.21;87.34;101007.09;5008122;28;20092;-66
2022/09/10 07:54:33;;;;;;;5.75;5.07;;;;;;;21.29;87.59;101016.38;5009018;28;20029;-68
2022/09/10 07:56:58;;;;;;;16.95;7.72;;;;;;;21.20;87.30;101017.94;5008433;28;20090;-67
2022/09/10 07:59:23;;;;;;;13.13;7.75;;;;;;;20.90;87.52;101025.50;5007727;28;20073;-66
2022/09/10 08:01:49;;;;;;;13.65;9.57;;;;;;;20.24;89.13;101037.41;5007439;28;20030;-68
2022/09/10 08:04:15;;;;;;;14.30;9.63;;;;;;;19.87;90.05;101042.66;5008339;28;20353;-67
2022/09/10 08:06:40;;;;;;;16.70;11.98;;;;;;;19.30;92.34;101038.44;5025359;28;20128;-69
2022/09/10 08:09:06;;;;;;;21.42;13.55;;;;;;;19.17;94.43;101040.25;5028546;28;20057;-68
2022/09/10 08:11:33;;;;;;;20.20;13.02;;;;;;;19.34;93.97;101040.91;5028677;28;20053;-66
2022/09/10 08:13:59;;;;;;;22.13;12.75;;;;;;;19.68;92.98;101043.94;5020813;28;20088;-66
2022/09/10 08:16:26;;;;;;;16.77;11.95;;;;;;;19.97;91.43;101050.88;5008463;28;20034;-68
2022/09/10 08:18:55;;;;;;;16.67;12.82;;;;;;;19.91;90.40;101055.72;5008232;28;20029;-66
2022/09/10 08:21:20;;;;;;;20.25;15.13;;;;;;;20.12;88.72;101062.34;5007289;28;20040;-66
2022/09/10 08:23:52;;;;;;;19.58;15.32;;;;;;;20.04;88.94;101071.78;5013225;28;20025;-68
2022/09/10 08:26:19;;;;;;;17.77;14.52;;;;;;;20.16;88.42;101070.03;4999985;28;20065;-68
2022/09/10 08:28:46;;;;;;;17.05;15.15;;;;;;;19.76;88.96;101078.16;5000363;28;20444;-69
2022/09/10 08:31:11;;;;;;;16.27;14.40;;;;;;;19.90;89.11;101087.91;5022419;28;20061;-67
2022/09/10 08:33:40;;;;;;;18.80;14.10;;;;;;;19.79;89.76;101088.66;5018222;28;20062;-66
2022/09/10 08:36:06;;;;;;;;;;;;;;;20.39;87.02;101102.34;5009628;28;20084;-69
2022/09/10 08:38:34;;;;;;;16.35;12.45;;;;;;;20.38;86.78;101103.28;5013904;28;19913;-65
2022/09/10 08:41:00;;;;;;;18.98;11.18;;;;;;;20.82;84.66;101109.06;5008944;28;20034;-67
2022/09/10 08:43:48;;;;;;;13.38;10.55;;;;;;;20.92;83.57;101101.22;5025928;28;20105;-68
2022/09/10 08:46:28;;;;;;;11.90;9.80;;;;;;;20.98;83.89;101115.16;4975842;28;20042;-66
2022/09/10 08:49:22;;;;;;;12.00;10.73;;;;;;;21.16;82.83;101107.56;4990707;28;20084;-69
2022/09/10 08:51:51;;;;;;;12.27;10.98;;;;;;;21.00;83.44;101111.38;5007401;28;20117;-67
2022/09/10 08:54:20;;;;;;;20.45;11.35;;;;;;;21.25;82.52;101114.88;5007345;28;20026;-62
2022/09/10 08:56:47;;;;;;;13.25;10.32;;;;;;;21.25;83.25;101120.25;4991356;28;20108;-67
2022/09/10 08:59:32;;;;;;;13.27;9.73;;;;;;;21.63;81.63;101121.00;5008838;28;20093;-66
2022/09/10 09:02:01;;;;;;;13.00;8.63;;;;;;;22.10;78.40;101117.44;5012031;28;20030;-66
2022/09/10 09:04:50;;;;;;;12.05;9.02;;;;;;;22.06;78.15;101121.31;4994078;28;20622;-67
2022/09/10 09:07:18;;;;;;;11.57;8.98;;;;;;;22.40;77.61;101120.50;4983533;28;20041;-68
2022/09/10 09:09:44;;;;;;;13.98;9.90;;;;;;;22.42;77.45;101122.06;5011855;28;20387;-67
2022/09/10 09:12:33;;;;;;;12.68;9.13;;;;;;;22.41;78.07;101128.44;4992626;28;20022;-67
2022/09/10 09:15:39;;;;;;;10.15;8.85;;;;;;;22.16;78.80;101127.69;4994661;28;20038;-69
2022/09/10 09:18:30;;;;;;;8.05;7.25;;;;;;;21.96;79.54;101138.16;5011002;28;20034;-70
2022/09/10 09:21:12;;;;;;;11.25;8.27;;;;;;;21.99;79.64;101142.44;5011980;28;20041;-67
2022/09/10 09:23:46;;;;;;;9.93;7.18;;;;;;;22.01;79.80;101142.31;4993973;28;20503;-67
2022/09/10 09:26:15;;;;;;;11.02;5.90;;;;;;;22.02;78.92;101144.00;5011037;28;20113;-67
2022/09/10 09:28:40;;;;;;;;;;;;;;;22.36;76.42;101146.72;4993216;28;20125;-67
2022/09/10 09:31:14;;;;;;;6.13;4.45;;;;;;;22.43;76.00;101150.63;5010879;28;19992;-69
2022/09/10 09:33:40;;;;;;;8.27;4.47;;;;;;;22.36;75.36;101153.94;5011188;28;20455;-67
2022/09/10 09:36:06;;;;;;;8.25;5.03;;;;;;;22.00;78.32;101156.72;5010965;28;20109;-63
2022/09/10 09:38:34;;;;;;;10.23;5.70;;;;;;;22.08;79.25;101154.28;4992431;28;21153;-69
2022/09/10 09:41:06;;;;;;;7.88;5.85;;;;;;;21.82;78.95;101157.13;4991890;28;20452;-68
2022/09/10 09:43:53;;;;;;;6.93;5.13;;;;;;;22.58;76.40;101145.88;4990533;28;20026;-64
2022/09/10 09:46:20;;;;;;;6.88;5.30;;;;;;;22.75;76.18;101162.47;4990618;28;20030;-64
2022/09/10 09:48:47;;;;;;;10.85;5.43;;;;;;;22.32;76.46;101166.72;4991317;28;20480;-70
2022/09/10 09:51:19;;;;;;;7.95;4.90;;;;;;;22.18;76.92;101171.34;4973589;28;20034;-64
2022/09/10 09:53:47;;;;;;;8.50;4.90;;;;;;;22.36;76.62;101167.34;5010852;28;20058;-67
2022/09/10 09:56:18;;;;;;;6.28;4.25;;;;;;;22.29;77.89;101172.34;5012115;28;20044;-65
2022/09/10 09:58:48;;;;;;;4.22;3.70;;;;;;;22.92;73.47;101169.16;5029635;28;20116;-69
2022/09/10 10:01:17;;;;;;;6.85;4.13;;;;;;;23.10;72.50;101171.31;5030511;28;20052;-67
2022/09/10 10:03:57;;;;;;;9.80;4.07;;;;;;;23.23;72.95;101173.81;5012198;28;20032;-65
2022/09/10 10:06:25;;;;;;;4.85;3.95;;;;;;;23.13;73.47;101176.44;5003968;28;20565;-68
2022/09/10 10:09:14;;;;;;;7.00;4.00;;;;;;;23.08;73.76;101173.25;5012615;28;20029;-65
2022/09/10 10:11:45;;;;;;;6.47;4.53;;;;;;;22.52;75.40;101177.72;5011654;28;20800;-69
2022/09/10 10:14:19;;;;;;;7.20;4.57;;;;;;;22.88;74.11;101178.47;5026326;28;20372;-70
2022/09/10 10:16:48;;;;;;;5.97;4.57;;;;;;;23.16;73.46;101186.06;5024107;28;20026;-68
2022/09/10 10:19:35;;;;;;;12.52;5.20;;;;;;;22.60;75.35;101180.66;5019542;28;20041;-70
2022/09/10 10:22:12;;;;;;;4.55;4.15;;;;;;;23.23;72.28;101188.13;5010452;28;20030;-68
2022/09/10 10:24:37;;;;;;;4.07;3.20;;;;;;;23.51;68.81;101193.06;5009538;28;20022;-66
2022/09/10 10:27:03;;;;;;;8.70;3.60;;;;;;;23.59;68.24;101184.34;5028699;28;20044;-69
2022/09/10 10:29:28;;;;;;;7.78;4.00;;;;;;;23.64;69.50;101200.97;5029095;28;20026;-71
2022/09/10 10:31:55;;;;;;;6.00;4.57;;;;;;;23.43;71.51;101206.31;5021852;28;20029;-66
2022/09/10 10:34:34;;;;;;;8.85;4.68;;;;;;;23.26;72.16;101208.53;5010174;28;20026;-73
2022/09/10 10:37:15;;;;;;;12.82;5.00;;;;;;;22.82;73.78;101217.41;4991640;28;20033;-70
2022/09/10 10:40:09;;;;;;;5.20;4.32;;;;;;;22.54;73.33;101214.19;4992291;28;20048;-68
2022/09/10 10:42:38;;;;;;;6.93;4.43;;;;;;;22.45;74.36;101209.56;4992281;28;20034;-64
2022/09/10 10:45:17;;;;;;;4.47;3.72;;;;;;;22.93;74.20;101219.22;4992746;28;20029;-68
2022/09/10 10:48:00;;;;;;;6.93;4.65;;;;;;;23.28;72.58;101221.84;5014582;28;20021;-70
2022/09/10 10:50:38;;;;;;;4.82;3.70;;;;;;;23.60;71.90;101223.72;5002591;28;20432;-69
2022/09/10 10:53:28;;;;;;;5.68;4.20;;;;;;;23.72;70.94;101222.69;5030085;28;20120;-66
2022/09/10 10:55:59;;;;;;;4.32;3.92;;;;;;;23.53;71.78;101222.50;5011725;28;20509;-68
2022/09/10 10:58:55;;;;;;;6.35;4.93;;;;;;;23.93;68.99;101232.59;5016665;28;20042;-63
2022/09/10 11:01:22;;;;;;;7.15;4.28;;;;;;;23.98;69.76;101240.28;5009904;28;20115;-69
2022/09/10 11:03:51;;;;;;;6.68;3.70;;;;;;;24.50;68.97;101238.66;5009529;28;20053;-70
2022/09/10 11:06:22;;;;;;;;;;;;;;;24.79;66.31;101233.38;4993036;28;20113;-67
2022/09/10 11:08:56;;;;;;;4.78;3.40;;;;;;;25.16;63.96;101236.50;5010038;28;20379;-71
2022/09/10 11:11:50;;;;;;;5.75;3.33;;;;;;;25.31;62.63;101251.28;4989937;28;20026;-71
2022/09/10 11:14:28;;;;;;;4.97;3.45;;;;;;;25.08;64.58;101242.56;4970179;28;20491;-65
2022/09/10 11:17:07;;;;;;;7.00;3.40;;;;;;;24.85;65.53;101249.00;4988332;28;20027;-67
2022/09/10 11:19:46;;;;;;;6.65;2.70;;;;;;;23.86;68.28;101258.31;4989371;28;20101;-64
2022/09/10 11:22:18;;;;;;;4.50;2.67;;;;;;;23.48;68.22;101245.25;4990375;28;20123;-69
2022/09/10 11:24:55;;;;;;;2.67;2.30;;;;;;;23.37;68.99;101249.81;4985436;28;20034;-69
2022/09/10 11:27:38;;;;;;;5.43;2.35;;;;;;;23.61;68.69;101246.94;5008122;28;20026;-69
2022/09/10 11:30:12;;;;;;;2.83;2.30;;;;;;;23.85;67.05;101245.88;5008127;28;20480;-66
2022/09/10 11:32:42;;;;;;;3.17;2.63;;;;;;;24.29;65.79;101250.31;5007987;28;20034;-68